createdAt,value
2023-02-01T00:02:42.571Z,94957
2023-02-01T00:06:07.764Z,94964
2023-02-01T00:09:33.042Z,94961
2023-02-01T00:12:58.275Z,94954
2023-02-01T00:16:23.496Z,94950
2023-02-01T00:19:48.744Z,94950
2023-02-01T00:23:14.014Z,94953
2023-02-01T00:26:39.325Z,94949
2023-02-01T00:30:04.546Z,94952
2023-02-01T00:33:29.754Z,94934
2023-02-01T00:36:54.987Z,94952
2023-02-01T00:40:20.650Z,94953
2023-02-01T00:43:45.564Z,94948
2023-02-01T00:47:10.853Z,94949
2023-02-01T00:50:36.061Z,94945
2023-02-01T00:54:01.333Z,94947
2023-02-01T00:57:26.572Z,94944
2023-02-01T01:00:51.856Z,94942
2023-02-01T01:04:17.142Z,94934
2023-02-01T01:07:42.346Z,94943
2023-02-01T01:11:07.553Z,94943
2023-02-01T01:14:32.794Z,94949
2023-02-01T01:17:58.018Z,94954
2023-02-01T01:21:23.294Z,94953
2023-02-01T01:24:48.444Z,94960
2023-02-01T01:28:13.654Z,94952
2023-02-01T01:31:38.876Z,94947
2023-02-01T01:35:03.984Z,94950
2023-02-01T01:38:29.169Z,94955
2023-02-01T01:41:54.321Z,94943
2023-02-01T01:45:19.521Z,94934
2023-02-01T01:48:44.697Z,94926
2023-02-01T01:52:09.901Z,94923
2023-02-01T01:55:35.167Z,94919
2023-02-01T01:59:00.363Z,94921
2023-02-01T02:02:25.655Z,94920
2023-02-01T02:05:50.908Z,94915
2023-02-01T02:09:16.150Z,94915
2023-02-01T02:12:41.400Z,94913
2023-02-01T02:16:06.667Z,94910
2023-02-01T02:19:31.855Z,94920
2023-02-01T02:22:57.133Z,94917
2023-02-01T02:26:22.369Z,94908
2023-02-01T02:29:47.647Z,94907
2023-02-01T02:33:12.871Z,94903
2023-02-01T02:36:38.133Z,94908
2023-02-01T02:40:03.389Z,94900
2023-02-01T02:43:28.660Z,94888
2023-02-01T02:46:53.926Z,94891
2023-02-01T02:50:19.382Z,94862
2023-02-01T02:53:44.398Z,94868
2023-02-01T02:57:09.653Z,94860
2023-02-01T03:00:34.915Z,94869
2023-02-01T03:04:00.231Z,94870
2023-02-01T03:07:25.478Z,94872
2023-02-01T03:10:50.746Z,94876
2023-02-01T03:14:16.025Z,94883
2023-02-01T03:17:41.271Z,94891
2023-02-01T03:21:06.571Z,94890
2023-02-01T03:24:31.827Z,94897
2023-02-01T03:27:57.100Z,94915
2023-02-01T03:31:22.425Z,94902
2023-02-01T03:34:47.661Z,94901
2023-02-01T03:38:12.947Z,94880
2023-02-01T03:41:38.172Z,94865
2023-02-01T03:45:03.423Z,94861
2023-02-01T03:48:28.673Z,94852
2023-02-01T03:51:53.965Z,94853
2023-02-01T03:55:22.028Z,94854
2023-02-01T03:58:47.265Z,94858
2023-02-01T04:02:12.590Z,94851
2023-02-01T04:05:37.785Z,94846
2023-02-01T04:09:02.982Z,94840
2023-02-01T04:12:28.242Z,94828
2023-02-01T04:15:53.453Z,94809
2023-02-01T04:19:18.702Z,94813
2023-02-01T04:22:43.884Z,94828
2023-02-01T04:26:09.084Z,94834
2023-02-01T04:29:34.349Z,94835
2023-02-01T04:32:59.567Z,94827
2023-02-01T04:36:26.285Z,94827
2023-02-01T04:39:51.568Z,94828
2023-02-01T04:43:16.834Z,94819
2023-02-01T04:46:41.995Z,94828
2023-02-01T04:50:07.138Z,94822
2023-02-01T04:53:32.310Z,94819
2023-02-01T04:56:57.451Z,94813
2023-02-01T05:00:22.933Z,94815
2023-02-01T05:03:47.819Z,94808
2023-02-01T05:07:12.922Z,94811
2023-02-01T05:10:38.105Z,94800
2023-02-01T05:14:03.264Z,94799
2023-02-01T05:17:28.434Z,94796
2023-02-01T05:20:53.632Z,94784
2023-02-01T05:24:18.771Z,94782
2023-02-01T05:27:44.003Z,94774
2023-02-01T05:31:09.222Z,94772
2023-02-01T05:34:34.339Z,94771
2023-02-01T05:37:59.546Z,94754
2023-02-01T05:41:24.700Z,94753
2023-02-01T05:44:49.881Z,94745
2023-02-01T05:48:15.066Z,94748
2023-02-01T05:51:40.265Z,94747
2023-02-01T05:55:05.480Z,94747
2023-02-01T05:58:33.275Z,94745
2023-02-01T06:01:58.512Z,94737
2023-02-01T06:05:23.704Z,94730
2023-02-01T06:08:48.936Z,94733
2023-02-01T06:12:14.100Z,94738
2023-02-01T06:15:39.296Z,94738
2023-02-01T06:19:04.459Z,94739
2023-02-01T06:22:29.605Z,94741
2023-02-01T06:25:54.774Z,94746
2023-02-01T06:29:19.959Z,94755
2023-02-01T06:32:45.095Z,94749
2023-02-01T06:36:10.266Z,94747
2023-02-01T06:39:35.428Z,94745
2023-02-01T06:43:00.583Z,94739
2023-02-01T06:46:25.806Z,94746
2023-02-01T06:49:50.910Z,94742
2023-02-01T06:53:16.096Z,94747
2023-02-01T06:56:41.238Z,94746
2023-02-01T07:00:06.429Z,94745
2023-02-01T07:03:31.651Z,94749
2023-02-01T07:06:56.818Z,94748
2023-02-01T07:10:22.246Z,94754
2023-02-01T07:13:47.162Z,94749
2023-02-01T07:17:12.309Z,94757
2023-02-01T07:20:37.513Z,94751
2023-02-01T07:24:02.639Z,94747
2023-02-01T07:27:27.827Z,94741
2023-02-01T07:30:53.042Z,94744
2023-02-01T07:34:18.159Z,94749
2023-02-01T07:37:43.348Z,94756
2023-02-01T07:41:08.472Z,94759
2023-02-01T07:44:33.668Z,94749
2023-02-01T07:47:58.852Z,94745
2023-02-01T07:51:24.050Z,94737
2023-02-01T07:54:49.365Z,94726
2023-02-01T07:58:14.579Z,94716
2023-02-01T08:01:39.811Z,94729
2023-02-01T08:05:05.046Z,94715
2023-02-01T08:08:30.237Z,94718
2023-02-01T08:11:55.424Z,94726
2023-02-01T08:15:20.580Z,94720
2023-02-01T08:18:45.732Z,94723
2023-02-01T08:22:10.932Z,94707
2023-02-01T08:25:36.094Z,94715
2023-02-01T08:29:01.328Z,94716
2023-02-01T08:32:26.435Z,94710
2023-02-01T08:35:51.655Z,94715
2023-02-01T08:39:16.915Z,94729
2023-02-01T08:42:42.158Z,94725
2023-02-01T08:46:07.500Z,94741
2023-02-01T08:49:32.633Z,94738
2023-02-01T08:52:57.888Z,94745
2023-02-01T08:56:23.197Z,94755
2023-02-01T08:59:48.305Z,94747
2023-02-01T09:03:13.521Z,94743
2023-02-01T09:06:38.695Z,94744
2023-02-01T09:10:03.898Z,94748
2023-02-01T09:13:29.061Z,94749
2023-02-01T09:16:54.231Z,94753
2023-02-01T09:20:19.436Z,94754
2023-02-01T09:23:44.588Z,94761
2023-02-01T09:27:09.773Z,94742
2023-02-01T09:30:34.944Z,94760
2023-02-01T09:34:00.131Z,94752
2023-02-01T09:37:25.408Z,94757
2023-02-01T09:40:50.591Z,94760
2023-02-01T09:44:15.793Z,94780
2023-02-01T09:47:40.998Z,94780
2023-02-01T09:51:06.222Z,94784
2023-02-01T09:54:31.501Z,94790
2023-02-01T09:57:56.756Z,94796
2023-02-01T10:01:22.039Z,94803
2023-02-01T10:04:47.311Z,94810
2023-02-01T10:08:12.584Z,94818
2023-02-01T10:11:37.891Z,94817
2023-02-01T10:15:03.156Z,94806
2023-02-01T10:18:28.408Z,94803
2023-02-01T10:21:53.606Z,94799
2023-02-01T10:25:18.861Z,94803
2023-02-01T10:28:44.140Z,94796
2023-02-01T10:32:09.405Z,94793
2023-02-01T10:35:34.749Z,94794
2023-02-01T10:38:59.998Z,94794
2023-02-01T10:42:25.298Z,94805
2023-02-01T10:45:50.621Z,94808
2023-02-01T10:49:15.900Z,94807
2023-02-01T10:52:41.111Z,94804
2023-02-01T10:56:06.349Z,94807
2023-02-01T10:59:31.575Z,94806
2023-02-01T11:02:56.921Z,94797
2023-02-01T11:06:22.135Z,94789
2023-02-01T11:09:47.323Z,94787
2023-02-01T11:13:12.586Z,94768
2023-02-01T11:16:37.824Z,94763
2023-02-01T11:20:03.090Z,94766
2023-02-01T11:23:28.341Z,94761
2023-02-01T11:26:53.587Z,94767
2023-02-01T11:30:18.830Z,94752
2023-02-01T11:33:44.082Z,94750
2023-02-01T11:37:09.341Z,94749
2023-02-01T11:40:34.550Z,94748
2023-02-01T11:43:59.781Z,94757
2023-02-01T11:47:25.069Z,94746
2023-02-01T11:50:50.253Z,94751
2023-02-01T11:54:15.543Z,94754
2023-02-01T11:57:40.743Z,94756
2023-02-01T12:01:05.955Z,94757
2023-02-01T12:04:31.193Z,94748
2023-02-01T12:07:56.402Z,94754
2023-02-01T12:11:21.698Z,94748
2023-02-01T12:14:46.945Z,94755
2023-02-01T12:18:12.986Z,94759
2023-02-01T12:21:38.061Z,94749
2023-02-01T12:25:03.301Z,94756
2023-02-01T12:28:28.581Z,94747
2023-02-01T12:31:53.837Z,94742
2023-02-01T12:35:19.115Z,94731
2023-02-01T12:38:44.364Z,94736
2023-02-01T12:42:09.594Z,94734
2023-02-01T12:45:34.882Z,94732
2023-02-01T12:49:00.093Z,94722
2023-02-01T12:52:25.339Z,94726
2023-02-01T12:55:51.592Z,94718
2023-02-01T12:59:15.846Z,94729
2023-02-01T13:02:41.117Z,94715
2023-02-01T13:06:06.299Z,94716
2023-02-01T13:09:31.547Z,94707
2023-02-01T13:12:56.778Z,94707
2023-02-01T13:16:22.161Z,94713
2023-02-01T13:19:47.353Z,94720
2023-02-01T13:23:13.969Z,94720
2023-02-01T13:26:37.850Z,94722
2023-02-01T13:30:03.124Z,94718
2023-02-01T13:33:51.937Z,94723
2023-02-01T13:36:53.696Z,94721
2023-02-01T13:40:18.923Z,94712
2023-02-01T13:43:44.224Z,94696
2023-02-01T13:47:09.493Z,94690
2023-02-01T13:50:34.775Z,94691
2023-02-01T13:54:00.110Z,94681
2023-02-01T13:57:25.346Z,94681
2023-02-01T14:00:50.590Z,94673
2023-02-01T14:04:18.534Z,94654
2023-02-01T14:07:43.781Z,94651
2023-02-01T14:11:09.093Z,94647
2023-02-01T14:14:34.344Z,94643
2023-02-01T14:17:59.648Z,94647
2023-02-01T14:21:25.014Z,94641
2023-02-01T14:24:50.302Z,94642
2023-02-01T14:28:15.624Z,94632
2023-02-01T15:06:47.503Z,94617
2023-02-01T15:10:12.740Z,94626
2023-02-01T15:13:43.927Z,94613
2023-02-01T15:17:09.197Z,94610
2023-02-01T15:20:34.504Z,94600
2023-02-01T15:23:59.867Z,94596
2023-02-01T15:27:25.055Z,94609
2023-02-01T15:30:50.367Z,94597
2023-02-01T15:34:15.540Z,94609
2023-02-01T15:37:40.849Z,94595
2023-02-01T15:41:06.123Z,94598
2023-02-01T15:44:31.386Z,94606
2023-02-01T15:47:56.563Z,94605
2023-02-01T15:51:21.815Z,94611
2023-02-01T15:54:47.173Z,94601
2023-02-01T15:58:12.328Z,94608
2023-02-01T16:01:37.560Z,94615
2023-02-01T16:05:02.795Z,94602
2023-02-01T16:08:28.868Z,94631
2023-02-01T16:11:54.116Z,94610
2023-02-01T16:15:19.431Z,94599
2023-02-01T16:18:44.652Z,94598
2023-02-01T16:22:09.901Z,94591
2023-02-01T16:25:35.153Z,94599
2023-02-01T16:29:00.406Z,94608
2023-02-01T16:32:25.727Z,94602
2023-02-01T16:35:50.951Z,94606
2023-02-01T16:39:16.227Z,94608
2023-02-01T16:42:41.509Z,94587
2023-02-01T16:46:06.837Z,94606
2023-02-01T16:49:32.114Z,94605
2023-02-01T16:52:57.348Z,94601
2023-02-01T16:56:22.624Z,94616
2023-02-01T16:59:47.872Z,94623
2023-02-01T17:03:13.121Z,94615
2023-02-01T17:06:38.416Z,94614
2023-02-01T17:10:03.685Z,94621
2023-02-01T17:13:28.897Z,94625
2023-02-01T17:16:54.138Z,94635
2023-02-01T17:20:19.411Z,94626
2023-02-01T17:23:44.915Z,94643
2023-02-01T17:27:10.003Z,94627
2023-02-01T17:30:35.306Z,94642
2023-02-01T17:34:00.539Z,94627
2023-02-01T17:37:25.960Z,94625
2023-02-01T17:40:51.296Z,94629
2023-02-01T17:44:16.543Z,94627
2023-02-01T17:47:41.835Z,94623
2023-02-01T17:51:07.097Z,94621
2023-02-01T17:54:32.454Z,94618
2023-02-01T17:57:57.776Z,94620
2023-02-01T18:01:23.085Z,94623
2023-02-01T18:04:48.344Z,94612
2023-02-01T18:08:13.611Z,94612
2023-02-01T18:11:38.871Z,94621
2023-02-01T18:15:04.230Z,94621
2023-02-01T18:18:29.514Z,94625
2023-02-01T18:21:54.758Z,94624
2023-02-01T18:25:20.048Z,94625
2023-02-01T18:28:45.280Z,94646
2023-02-01T18:32:10.613Z,94643
2023-02-01T18:35:35.808Z,94653
2023-02-01T18:39:01.131Z,94673
2023-02-01T18:42:26.426Z,94657
2023-02-01T18:45:51.661Z,94663
2023-02-01T18:49:16.923Z,94656
2023-02-01T18:52:42.136Z,94661
2023-02-01T18:56:07.435Z,94649
2023-02-01T18:59:32.694Z,94645
2023-02-01T19:02:57.984Z,94647
2023-02-01T19:06:23.231Z,94654
2023-02-01T19:09:48.461Z,94659
2023-02-01T19:13:13.690Z,94644
2023-02-01T19:16:38.919Z,94646
2023-02-01T19:20:04.146Z,94645
2023-02-01T19:23:29.404Z,94647
2023-02-01T19:26:54.682Z,94649
2023-02-01T19:30:19.927Z,94654
2023-02-01T19:33:45.181Z,94680
2023-02-01T19:37:10.441Z,94693
2023-02-01T19:40:35.725Z,94685
2023-02-01T19:44:00.967Z,94661
2023-02-01T19:47:26.209Z,94676
2023-02-01T19:50:51.438Z,94714
2023-02-01T19:54:16.728Z,94701
2023-02-01T19:57:42.037Z,94704
2023-02-01T20:01:06.401Z,94725
2023-02-01T20:04:32.676Z,94730
2023-02-01T20:07:57.929Z,94730
2023-02-01T20:11:23.186Z,94728
2023-02-01T20:14:48.447Z,94734
2023-02-01T20:18:13.690Z,94736
2023-02-01T20:21:38.985Z,94727
2023-02-01T20:25:04.218Z,94736
2023-02-01T20:28:30.336Z,94730
2023-02-01T20:31:55.589Z,94740
2023-02-01T20:35:20.829Z,94730
2023-02-01T20:38:46.060Z,94735
2023-02-01T20:42:11.355Z,94738
2023-02-01T20:45:36.648Z,94745
2023-02-01T20:49:01.932Z,94743
2023-02-01T20:52:27.132Z,94745
2023-02-01T20:55:52.301Z,94755
2023-02-01T20:59:17.478Z,94749
2023-02-01T21:02:42.652Z,94733
2023-02-01T21:06:07.864Z,94720
2023-02-01T21:09:33.031Z,94726
2023-02-01T21:13:04.985Z,94728
2023-02-01T21:16:23.421Z,94737
2023-02-01T21:19:48.561Z,94734
2023-02-01T21:23:13.764Z,94734
2023-02-01T21:26:38.985Z,94729
2023-02-01T21:30:04.386Z,94734
2023-02-01T21:33:29.310Z,94742
2023-02-01T21:36:54.480Z,94757
2023-02-01T21:40:19.678Z,94746
2023-02-01T21:43:44.846Z,94749
2023-02-01T21:47:10.029Z,94755
2023-02-01T21:50:35.257Z,94752
2023-02-01T21:54:00.419Z,94746
2023-02-01T21:57:25.629Z,94749
2023-02-01T22:00:50.804Z,94747
2023-02-01T22:04:15.984Z,94748
2023-02-01T22:07:41.169Z,94765
2023-02-01T22:11:06.352Z,94773
2023-02-01T22:14:31.562Z,94771
2023-02-01T22:17:56.698Z,94785
2023-02-01T22:21:21.878Z,94797
2023-02-01T22:24:47.032Z,94788
2023-02-01T22:28:31.336Z,94795
2023-02-01T22:31:37.521Z,94795
2023-02-01T22:35:02.582Z,94790
2023-02-01T22:38:27.748Z,94788
2023-02-01T22:41:52.932Z,94787
2023-02-01T22:45:18.111Z,94785
2023-02-01T22:48:43.306Z,94791
2023-02-01T22:52:08.449Z,94797
2023-02-01T22:55:33.625Z,94793
2023-02-01T22:58:58.797Z,94794
2023-02-01T23:02:24.027Z,94806
2023-02-01T23:05:49.190Z,94799
2023-02-01T23:09:14.316Z,94812
2023-02-01T23:12:39.512Z,94808
2023-02-01T23:16:04.768Z,94797
2023-02-01T23:19:29.870Z,94800
2023-02-01T23:22:55.068Z,94794
2023-02-01T23:26:20.271Z,94790
2023-02-01T23:29:45.418Z,94783
2023-02-01T23:33:10.585Z,94785
2023-02-01T23:36:35.768Z,94791
2023-02-01T23:40:01.000Z,94792
2023-02-01T23:43:26.156Z,94791
2023-02-01T23:46:51.338Z,94791
2023-02-01T23:50:16.535Z,94800
2023-02-01T23:53:41.706Z,94797
2023-02-01T23:57:06.922Z,94797
